sensor_id;sensor_type;location;lat;lon;timestamp;temperature;humidity
56771;DHT22;42641;59.794;17.616;2022-12-18T00:01:26;2.00;99.90
56771;DHT22;42641;59.794;17.616;2022-12-18T00:03:54;2.00;99.90
56771;DHT22;42641;59.794;17.616;2022-12-18T00:06:22;2.00;99.90
56771;DHT22;42641;59.794;17.616;2022-12-18T00:08:48;2.00;99.90
56771;DHT22;42641;59.794;17.616;2022-12-18T00:11:17;2.10;99.90
56771;DHT22;42641;59.794;17.616;2022-12-18T00:13:44;2.10;99.90
56771;DHT22;42641;59.794;17.616;2022-12-18T00:16:13;2.20;99.90
56771;DHT22;42641;59.794;17.616;2022-12-18T00:18:41;2.10;99.90
56771;DHT22;42641;59.794;17.616;2022-12-18T00:21:10;2.10;99.90
56771;DHT22;42641;59.794;17.616;2022-12-18T00:23:38;2.10;99.90
56771;DHT22;42641;59.794;17.616;2022-12-18T00:26:07;2.10;99.90
56771;DHT22;42641;59.794;17.616;2022-12-18T00:28:34;2.20;99.90
56771;DHT22;42641;59.794;17.616;2022-12-18T00:31:08;2.20;99.90
56771;DHT22;42641;59.794;17.616;2022-12-18T00:33:36;2.20;99.90
56771;DHT22;42641;59.794;17.616;2022-12-18T00:36:10;2.20;99.90
56771;DHT22;42641;59.794;17.616;2022-12-18T00:38:38;2.30;99.90
56771;DHT22;42641;59.794;17.616;2022-12-18T00:41:05;2.30;99.90
56771;DHT22;42641;59.794;17.616;2022-12-18T00:43:31;2.20;99.90
56771;DHT22;42641;59.794;17.616;2022-12-18T00:45:58;2.20;99.90
56771;DHT22;42641;59.794;17.616;2022-12-18T00:48:25;2.30;99.90
56771;DHT22;42641;59.794;17.616;2022-12-18T00:50:52;2.30;99.90
56771;DHT22;42641;59.794;17.616;2022-12-18T00:53:18;2.30;99.90
56771;DHT22;42641;59.794;17.616;2022-12-18T00:55:45;2.30;99.90
56771;DHT22;42641;59.794;17.616;2022-12-18T00:58:13;2.30;99.90
56771;DHT22;42641;59.794;17.616;2022-12-18T01:00:41;2.30;99.90
56771;DHT22;42641;59.794;17.616;2022-12-18T01:03:13;2.30;99.90
56771;DHT22;42641;59.794;17.616;2022-12-18T01:05:41;2.30;99.90
56771;DHT22;42641;59.794;17.616;2022-12-18T01:08:08;2.30;99.90
56771;DHT22;42641;59.794;17.616;2022-12-18T01:10:34;2.40;99.90
56771;DHT22;42641;59.794;17.616;2022-12-18T01:13:01;2.30;99.90
56771;DHT22;42641;59.794;17.616;2022-12-18T01:15:27;2.30;99.90
56771;DHT22;42641;59.794;17.616;2022-12-18T01:17:53;2.30;99.90
56771;DHT22;42641;59.794;17.616;2022-12-18T01:20:20;2.40;99.90
56771;DHT22;42641;59.794;17.616;2022-12-18T01:22:46;2.40;99.90
56771;DHT22;42641;59.794;17.616;2022-12-18T01:25:13;2.40;99.90
56771;DHT22;42641;59.794;17.616;2022-12-18T01:27:39;2.40;99.90
56771;DHT22;42641;59.794;17.616;2022-12-18T01:30:06;2.40;99.90
56771;DHT22;42641;59.794;17.616;2022-12-18T01:32:33;2.40;99.90
56771;DHT22;42641;59.794;17.616;2022-12-18T01:35:02;2.40;99.90
56771;DHT22;42641;59.794;17.616;2022-12-18T01:37:29;2.40;99.90
56771;DHT22;42641;59.794;17.616;2022-12-18T01:39:55;2.40;99.90
56771;DHT22;42641;59.794;17.616;2022-12-18T01:42:21;2.40;99.90
56771;DHT22;42641;59.794;17.616;2022-12-18T01:47:56;2.40;99.90
56771;DHT22;42641;59.794;17.616;2022-12-18T01:50:30;2.40;99.90
56771;DHT22;42641;59.794;17.616;2022-12-18T01:53:07;2.40;99.90
56771;DHT22;42641;59.794;17.616;2022-12-18T01:55:57;2.40;99.90
56771;DHT22;42641;59.794;17.616;2022-12-18T01:58:53;2.40;99.90
56771;DHT22;42641;59.794;17.616;2022-12-18T02:01:22;2.40;99.90
56771;DHT22;42641;59.794;17.616;2022-12-18T02:03:49;2.30;99.90
56771;DHT22;42641;59.794;17.616;2022-12-18T02:09:10;2.40;99.90
56771;DHT22;42641;59.794;17.616;2022-12-18T02:11:55;2.30;99.90
56771;DHT22;42641;59.794;17.616;2022-12-18T02:14:38;2.40;99.90
56771;DHT22;42641;59.794;17.616;2022-12-18T02:17:19;2.40;99.90
56771;DHT22;42641;59.794;17.616;2022-12-18T02:20:13;2.30;99.90
56771;DHT22;42641;59.794;17.616;2022-12-18T02:27:51;2.30;99.90
56771;DHT22;42641;59.794;17.616;2022-12-18T02:30:20;2.40;99.90
56771;DHT22;42641;59.794;17.616;2022-12-18T02:32:53;2.40;99.90
56771;DHT22;42641;59.794;17.616;2022-12-18T02:35:23;2.40;99.90
56771;DHT22;42641;59.794;17.616;2022-12-18T02:37:53;2.40;99.90
56771;DHT22;42641;59.794;17.616;2022-12-18T02:40:22;2.40;99.90
56771;DHT22;42641;59.794;17.616;2022-12-18T02:42:50;2.40;99.90
56771;DHT22;42641;59.794;17.616;2022-12-18T02:45:18;2.40;99.90
56771;DHT22;42641;59.794;17.616;2022-12-18T02:47:48;2.40;99.90
56771;DHT22;42641;59.794;17.616;2022-12-18T02:50:21;2.40;99.90
56771;DHT22;42641;59.794;17.616;2022-12-18T02:56:28;2.30;99.90
56771;DHT22;42641;59.794;17.616;2022-12-18T02:59:08;2.40;99.90
56771;DHT22;42641;59.794;17.616;2022-12-18T03:04:44;2.30;99.90
56771;DHT22;42641;59.794;17.616;2022-12-18T03:07:16;2.30;99.90
56771;DHT22;42641;59.794;17.616;2022-12-18T03:09:46;2.40;99.90
56771;DHT22;42641;59.794;17.616;2022-12-18T03:12:19;2.30;99.90
56771;DHT22;42641;59.794;17.616;2022-12-18T03:17:40;2.30;99.90
56771;DHT22;42641;59.794;17.616;2022-12-18T03:20:15;2.40;99.90
56771;DHT22;42641;59.794;17.616;2022-12-18T03:22:46;2.40;99.90
56771;DHT22;42641;59.794;17.616;2022-12-18T03:25:16;2.40;99.90
56771;DHT22;42641;59.794;17.616;2022-12-18T03:27:47;2.40;99.90
56771;DHT22;42641;59.794;17.616;2022-12-18T03:30:16;2.40;99.90
56771;DHT22;42641;59.794;17.616;2022-12-18T03:35:29;2.40;99.90
56771;DHT22;42641;59.794;17.616;2022-12-18T03:37:56;2.40;99.90
56771;DHT22;42641;59.794;17.616;2022-12-18T03:40:44;2.40;99.90
56771;DHT22;42641;59.794;17.616;2022-12-18T03:45:58;2.40;99.90
56771;DHT22;42641;59.794;17.616;2022-12-18T03:48:31;2.40;99.90
56771;DHT22;42641;59.794;17.616;2022-12-18T03:51:16;2.40;99.90
56771;DHT22;42641;59.794;17.616;2022-12-18T03:54:04;2.40;99.90
56771;DHT22;42641;59.794;17.616;2022-12-18T03:56:45;2.30;99.90
56771;DHT22;42641;59.794;17.616;2022-12-18T03:59:16;2.30;99.90
56771;DHT22;42641;59.794;17.616;2022-12-18T04:01:47;2.30;99.90
56771;DHT22;42641;59.794;17.616;2022-12-18T04:04:16;2.30;99.90
56771;DHT22;42641;59.794;17.616;2022-12-18T04:06:46;2.30;99.90
56771;DHT22;42641;59.794;17.616;2022-12-18T04:09:14;2.20;99.90
56771;DHT22;42641;59.794;17.616;2022-12-18T04:11:44;2.30;99.90
56771;DHT22;42641;59.794;17.616;2022-12-18T04:14:14;2.30;99.90
56771;DHT22;42641;59.794;17.616;2022-12-18T04:16:41;2.30;99.90
56771;DHT22;42641;59.794;17.616;2022-12-18T04:19:11;2.30;99.90
56771;DHT22;42641;59.794;17.616;2022-12-18T04:21:40;2.20;99.90
56771;DHT22;42641;59.794;17.616;2022-12-18T04:24:09;2.20;99.90
56771;DHT22;42641;59.794;17.616;2022-12-18T04:26:38;2.20;99.90
56771;DHT22;42641;59.794;17.616;2022-12-18T04:29:15;2.20;99.90
56771;DHT22;42641;59.794;17.616;2022-12-18T04:31:42;2.20;99.90
56771;DHT22;42641;59.794;17.616;2022-12-18T04:34:09;2.20;99.90
56771;DHT22;42641;59.794;17.616;2022-12-18T04:36:41;2.20;99.90
56771;DHT22;42641;59.794;17.616;2022-12-18T04:39:08;2.10;99.90
56771;DHT22;42641;59.794;17.616;2022-12-18T04:41:34;2.10;99.90
56771;DHT22;42641;59.794;17.616;2022-12-18T04:44:01;2.10;99.90
56771;DHT22;42641;59.794;17.616;2022-12-18T04:46:27;2.00;99.90
56771;DHT22;42641;59.794;17.616;2022-12-18T04:48:54;2.00;99.90
56771;DHT22;42641;59.794;17.616;2022-12-18T04:51:20;2.10;99.90
56771;DHT22;42641;59.794;17.616;2022-12-18T04:53:47;2.00;99.90
56771;DHT22;42641;59.794;17.616;2022-12-18T04:56:14;2.10;99.90
56771;DHT22;42641;59.794;17.616;2022-12-18T04:58:42;2.00;99.90
56771;DHT22;42641;59.794;17.616;2022-12-18T05:01:11;2.00;99.90
56771;DHT22;42641;59.794;17.616;2022-12-18T05:03:38;2.00;99.90
56771;DHT22;42641;59.794;17.616;2022-12-18T05:06:06;2.00;99.90
56771;DHT22;42641;59.794;17.616;2022-12-18T05:08:33;2.00;99.90
56771;DHT22;42641;59.794;17.616;2022-12-18T05:11:03;1.90;99.90
56771;DHT22;42641;59.794;17.616;2022-12-18T05:13:31;1.90;99.90
56771;DHT22;42641;59.794;17.616;2022-12-18T05:15:57;1.90;99.90
56771;DHT22;42641;59.794;17.616;2022-12-18T05:18:24;1.90;99.90
56771;DHT22;42641;59.794;17.616;2022-12-18T05:20:52;1.90;99.90
56771;DHT22;42641;59.794;17.616;2022-12-18T05:23:19;1.90;99.90
56771;DHT22;42641;59.794;17.616;2022-12-18T05:26:00;1.90;99.90
56771;DHT22;42641;59.794;17.616;2022-12-18T05:28:29;1.90;99.90
56771;DHT22;42641;59.794;17.616;2022-12-18T05:30:58;1.90;99.90
56771;DHT22;42641;59.794;17.616;2022-12-18T05:33:27;1.90;99.90
56771;DHT22;42641;59.794;17.616;2022-12-18T05:35:57;1.90;99.90
56771;DHT22;42641;59.794;17.616;2022-12-18T05:38:25;1.90;99.90
56771;DHT22;42641;59.794;17.616;2022-12-18T05:40:52;2.00;99.90
56771;DHT22;42641;59.794;17.616;2022-12-18T05:43:19;1.90;99.90
56771;DHT22;42641;59.794;17.616;2022-12-18T05:45:48;1.90;99.90
56771;DHT22;42641;59.794;17.616;2022-12-18T05:48:15;1.90;99.90
56771;DHT22;42641;59.794;17.616;2022-12-18T05:50:44;2.00;99.90
56771;DHT22;42641;59.794;17.616;2022-12-18T05:53:16;1.90;99.90
56771;DHT22;42641;59.794;17.616;2022-12-18T05:55:43;1.90;99.90
56771;DHT22;42641;59.794;17.616;2022-12-18T05:58:11;1.90;99.90
56771;DHT22;42641;59.794;17.616;2022-12-18T06:00:40;1.90;99.90
56771;DHT22;42641;59.794;17.616;2022-12-18T06:03:07;1.90;99.90
56771;DHT22;42641;59.794;17.616;2022-12-18T06:05:40;2.00;99.90
56771;DHT22;42641;59.794;17.616;2022-12-18T06:08:07;1.90;99.90
56771;DHT22;42641;59.794;17.616;2022-12-18T06:10:33;1.90;99.90
56771;DHT22;42641;59.794;17.616;2022-12-18T06:13:00;1.90;99.90
56771;DHT22;42641;59.794;17.616;2022-12-18T06:15:26;1.90;99.90
56771;DHT22;42641;59.794;17.616;2022-12-18T06:17:53;1.90;99.90
56771;DHT22;42641;59.794;17.616;2022-12-18T06:20:20;1.90;99.90
56771;DHT22;42641;59.794;17.616;2022-12-18T06:22:46;1.90;99.90
56771;DHT22;42641;59.794;17.616;2022-12-18T06:25:12;1.90;99.90
56771;DHT22;42641;59.794;17.616;2022-12-18T06:27:39;1.90;99.90
56771;DHT22;42641;59.794;17.616;2022-12-18T06:30:06;1.90;99.90
56771;DHT22;42641;59.794;17.616;2022-12-18T06:32:33;1.90;99.90
56771;DHT22;42641;59.794;17.616;2022-12-18T06:35:00;1.90;99.90
56771;DHT22;42641;59.794;17.616;2022-12-18T06:37:26;1.90;99.90
56771;DHT22;42641;59.794;17.616;2022-12-18T06:39:53;1.90;99.90
56771;DHT22;42641;59.794;17.616;2022-12-18T06:42:20;1.90;99.90
56771;DHT22;42641;59.794;17.616;2022-12-18T06:44:46;1.90;99.90
56771;DHT22;42641;59.794;17.616;2022-12-18T06:47:12;1.90;99.90
56771;DHT22;42641;59.794;17.616;2022-12-18T06:49:39;1.90;99.90
56771;DHT22;42641;59.794;17.616;2022-12-18T06:52:05;1.90;99.90
56771;DHT22;42641;59.794;17.616;2022-12-18T06:54:31;1.90;99.90
56771;DHT22;42641;59.794;17.616;2022-12-18T06:56:58;2.00;99.90
56771;DHT22;42641;59.794;17.616;2022-12-18T06:59:24;2.00;99.90
56771;DHT22;42641;59.794;17.616;2022-12-18T07:01:50;2.00;99.90
56771;DHT22;42641;59.794;17.616;2022-12-18T07:04:17;1.90;99.90
56771;DHT22;42641;59.794;17.616;2022-12-18T07:06:43;1.90;99.90
56771;DHT22;42641;59.794;17.616;2022-12-18T07:09:10;1.90;99.90
56771;DHT22;42641;59.794;17.616;2022-12-18T07:11:36;1.90;99.90
56771;DHT22;42641;59.794;17.616;2022-12-18T07:14:03;1.90;99.90
56771;DHT22;42641;59.794;17.616;2022-12-18T07:16:29;1.90;99.90
56771;DHT22;42641;59.794;17.616;2022-12-18T07:18:55;1.90;99.90
56771;DHT22;42641;59.794;17.616;2022-12-18T07:21:23;1.90;99.90
56771;DHT22;42641;59.794;17.616;2022-12-18T07:23:50;1.90;99.90
56771;DHT22;42641;59.794;17.616;2022-12-18T07:26:18;1.90;99.90
56771;DHT22;42641;59.794;17.616;2022-12-18T07:28:46;1.90;99.90
56771;DHT22;42641;59.794;17.616;2022-12-18T07:31:15;1.90;99.90
56771;DHT22;42641;59.794;17.616;2022-12-18T07:33:42;1.90;99.90
56771;DHT22;42641;59.794;17.616;2022-12-18T07:36:10;1.90;99.90
56771;DHT22;42641;59.794;17.616;2022-12-18T07:38:37;1.90;99.90
56771;DHT22;42641;59.794;17.616;2022-12-18T07:41:05;1.90;99.90
56771;DHT22;42641;59.794;17.616;2022-12-18T07:43:32;1.90;99.90
56771;DHT22;42641;59.794;17.616;2022-12-18T07:45:59;1.90;99.90
56771;DHT22;42641;59.794;17.616;2022-12-18T07:48:26;1.90;99.90
56771;DHT22;42641;59.794;17.616;2022-12-18T07:50:52;1.90;99.90
56771;DHT22;42641;59.794;17.616;2022-12-18T07:53:18;1.90;99.90
56771;DHT22;42641;59.794;17.616;2022-12-18T07:55:45;1.90;99.90
56771;DHT22;42641;59.794;17.616;2022-12-18T07:58:11;2.00;99.90
56771;DHT22;42641;59.794;17.616;2022-12-18T08:00:37;2.00;99.90
56771;DHT22;42641;59.794;17.616;2022-12-18T08:03:04;2.00;99.90
56771;DHT22;42641;59.794;17.616;2022-12-18T08:05:30;2.00;99.90
56771;DHT22;42641;59.794;17.616;2022-12-18T08:07:58;2.00;99.90
56771;DHT22;42641;59.794;17.616;2022-12-18T08:10:24;2.10;99.90
56771;DHT22;42641;59.794;17.616;2022-12-18T08:12:51;2.00;99.90
56771;DHT22;42641;59.794;17.616;2022-12-18T08:15:18;2.10;99.90
56771;DHT22;42641;59.794;17.616;2022-12-18T08:17:44;2.10;99.90
56771;DHT22;42641;59.794;17.616;2022-12-18T08:20:11;2.10;99.90
56771;DHT22;42641;59.794;17.616;2022-12-18T08:22:37;2.10;99.90
56771;DHT22;42641;59.794;17.616;2022-12-18T08:25:05;2.10;99.90
56771;DHT22;42641;59.794;17.616;2022-12-18T08:27:31;2.10;99.90
56771;DHT22;42641;59.794;17.616;2022-12-18T08:29:58;2.20;99.90
56771;DHT22;42641;59.794;17.616;2022-12-18T08:32:26;2.20;99.90
56771;DHT22;42641;59.794;17.616;2022-12-18T08:34:52;2.20;99.90
56771;DHT22;42641;59.794;17.616;2022-12-18T08:37:19;2.20;99.90
56771;DHT22;42641;59.794;17.616;2022-12-18T08:39:45;2.20;99.90
56771;DHT22;42641;59.794;17.616;2022-12-18T08:42:11;2.20;99.90
56771;DHT22;42641;59.794;17.616;2022-12-18T08:44:56;2.20;99.90
56771;DHT22;42641;59.794;17.616;2022-12-18T08:47:23;2.20;99.90
56771;DHT22;42641;59.794;17.616;2022-12-18T08:49:49;2.20;99.90
56771;DHT22;42641;59.794;17.616;2022-12-18T08:52:15;2.20;99.90
56771;DHT22;42641;59.794;17.616;2022-12-18T08:54:42;2.20;99.90
56771;DHT22;42641;59.794;17.616;2022-12-18T08:57:08;2.20;99.90
56771;DHT22;42641;59.794;17.616;2022-12-18T08:59:34;2.30;99.90
56771;DHT22;42641;59.794;17.616;2022-12-18T09:02:01;2.30;99.90
56771;DHT22;42641;59.794;17.616;2022-12-18T09:04:27;2.30;99.90
56771;DHT22;42641;59.794;17.616;2022-12-18T09:06:54;2.30;99.90
56771;DHT22;42641;59.794;17.616;2022-12-18T09:09:21;2.40;99.90
56771;DHT22;42641;59.794;17.616;2022-12-18T09:11:48;2.40;99.90
56771;DHT22;42641;59.794;17.616;2022-12-18T09:14:14;2.40;99.90
56771;DHT22;42641;59.794;17.616;2022-12-18T09:16:40;2.50;99.90
56771;DHT22;42641;59.794;17.616;2022-12-18T09:19:07;2.40;99.90
56771;DHT22;42641;59.794;17.616;2022-12-18T09:21:37;2.50;99.90
56771;DHT22;42641;59.794;17.616;2022-12-18T09:24:05;2.50;99.90
56771;DHT22;42641;59.794;17.616;2022-12-18T09:26:31;2.50;99.90
56771;DHT22;42641;59.794;17.616;2022-12-18T09:28:58;2.50;99.90
56771;DHT22;42641;59.794;17.616;2022-12-18T09:31:24;2.50;99.90
56771;DHT22;42641;59.794;17.616;2022-12-18T09:33:51;2.50;99.90
56771;DHT22;42641;59.794;17.616;2022-12-18T09:36:18;2.60;99.90
56771;DHT22;42641;59.794;17.616;2022-12-18T09:38:45;2.60;99.90
56771;DHT22;42641;59.794;17.616;2022-12-18T09:41:32;2.60;99.90
56771;DHT22;42641;59.794;17.616;2022-12-18T09:44:05;2.70;99.90
56771;DHT22;42641;59.794;17.616;2022-12-18T09:46:44;2.70;99.90
56771;DHT22;42641;59.794;17.616;2022-12-18T09:49:16;2.70;99.90
56771;DHT22;42641;59.794;17.616;2022-12-18T09:51:51;2.70;99.90
56771;DHT22;42641;59.794;17.616;2022-12-18T09:54:32;2.70;99.90
56771;DHT22;42641;59.794;17.616;2022-12-18T09:56:59;2.80;99.90
56771;DHT22;42641;59.794;17.616;2022-12-18T09:59:37;2.70;99.90
56771;DHT22;42641;59.794;17.616;2022-12-18T10:02:17;2.80;99.90
56771;DHT22;42641;59.794;17.616;2022-12-18T10:04:45;2.80;99.90
56771;DHT22;42641;59.794;17.616;2022-12-18T10:07:20;2.80;99.90
56771;DHT22;42641;59.794;17.616;2022-12-18T10:10:12;2.90;99.90
56771;DHT22;42641;59.794;17.616;2022-12-18T10:21:05;2.90;99.90
56771;DHT22;42641;59.794;17.616;2022-12-18T10:24:12;2.90;99.90
56771;DHT22;42641;59.794;17.616;2022-12-18T10:26:41;2.90;99.90
56771;DHT22;42641;59.794;17.616;2022-12-18T10:29:11;2.90;99.90
56771;DHT22;42641;59.794;17.616;2022-12-18T10:31:38;2.90;99.90
56771;DHT22;42641;59.794;17.616;2022-12-18T10:34:12;2.90;99.90
56771;DHT22;42641;59.794;17.616;2022-12-18T10:36:38;2.90;99.90
56771;DHT22;42641;59.794;17.616;2022-12-18T10:39:34;2.90;99.90
56771;DHT22;42641;59.794;17.616;2022-12-18T10:42:16;3.00;99.90
56771;DHT22;42641;59.794;17.616;2022-12-18T10:44:43;3.00;99.90
56771;DHT22;42641;59.794;17.616;2022-12-18T10:47:18;3.00;99.90
56771;DHT22;42641;59.794;17.616;2022-12-18T10:49:50;3.00;99.90
56771;DHT22;42641;59.794;17.616;2022-12-18T10:52:21;3.10;99.90
56771;DHT22;42641;59.794;17.616;2022-12-18T10:54:59;3.10;99.90
56771;DHT22;42641;59.794;17.616;2022-12-18T10:57:38;3.20;99.90
56771;DHT22;42641;59.794;17.616;2022-12-18T11:00:28;3.20;99.90
56771;DHT22;42641;59.794;17.616;2022-12-18T11:02:55;3.20;99.90
56771;DHT22;42641;59.794;17.616;2022-12-18T11:05:33;3.30;99.90
56771;DHT22;42641;59.794;17.616;2022-12-18T11:08:00;3.30;99.90
56771;DHT22;42641;59.794;17.616;2022-12-18T11:10:36;3.40;99.90
56771;DHT22;42641;59.794;17.616;2022-12-18T11:13:23;3.30;99.90
56771;DHT22;42641;59.794;17.616;2022-12-18T11:15:51;3.40;99.90
56771;DHT22;42641;59.794;17.616;2022-12-18T11:18:30;3.40;99.90
56771;DHT22;42641;59.794;17.616;2022-12-18T11:20:59;3.40;99.90
56771;DHT22;42641;59.794;17.616;2022-12-18T11:23:27;3.40;99.90
56771;DHT22;42641;59.794;17.616;2022-12-18T11:25:59;3.40;99.90
56771;DHT22;42641;59.794;17.616;2022-12-18T11:28:39;3.50;99.90
56771;DHT22;42641;59.794;17.616;2022-12-18T11:31:27;3.50;99.90
56771;DHT22;42641;59.794;17.616;2022-12-18T11:34:22;3.70;99.90
56771;DHT22;42641;59.794;17.616;2022-12-18T11:36:52;3.70;99.90
56771;DHT22;42641;59.794;17.616;2022-12-18T11:44:59;3.70;99.90
56771;DHT22;42641;59.794;17.616;2022-12-18T11:50:26;3.80;99.90
56771;DHT22;42641;59.794;17.616;2022-12-18T11:52:55;3.80;99.90
56771;DHT22;42641;59.794;17.616;2022-12-18T11:55:36;3.80;99.90
56771;DHT22;42641;59.794;17.616;2022-12-18T11:58:35;3.90;99.90
56771;DHT22;42641;59.794;17.616;2022-12-18T12:09:58;3.90;99.90
56771;DHT22;42641;59.794;17.616;2022-12-18T12:13:06;3.90;99.90
56771;DHT22;42641;59.794;17.616;2022-12-18T12:15:52;3.80;99.90
56771;DHT22;42641;59.794;17.616;2022-12-18T12:21:07;3.70;99.90
56771;DHT22;42641;59.794;17.616;2022-12-18T12:26:35;3.70;99.90
56771;DHT22;42641;59.794;17.616;2022-12-18T12:31:53;3.70;99.90
56771;DHT22;42641;59.794;17.616;2022-12-18T12:34:31;3.70;99.90
56771;DHT22;42641;59.794;17.616;2022-12-18T12:39:36;3.70;99.90
56771;DHT22;42641;59.794;17.616;2022-12-18T12:42:13;3.70;99.90
56771;DHT22;42641;59.794;17.616;2022-12-18T12:45:05;3.70;99.90
56771;DHT22;42641;59.794;17.616;2022-12-18T12:47:35;3.70;99.90
56771;DHT22;42641;59.794;17.616;2022-12-18T12:50:06;3.80;99.90
56771;DHT22;42641;59.794;17.616;2022-12-18T12:52:45;3.80;99.90
56771;DHT22;42641;59.794;17.616;2022-12-18T12:55:26;3.80;99.90
56771;DHT22;42641;59.794;17.616;2022-12-18T12:58:14;3.80;99.90
56771;DHT22;42641;59.794;17.616;2022-12-18T13:07:16;4.00;99.90
56771;DHT22;42641;59.794;17.616;2022-12-18T13:09:22;4.00;99.90
56771;DHT22;42641;59.794;17.616;2022-12-18T13:11:49;4.00;99.90
56771;DHT22;42641;59.794;17.616;2022-12-18T13:14:35;4.00;99.90
56771;DHT22;42641;59.794;17.616;2022-12-18T13:19:51;4.10;99.90
56771;DHT22;42641;59.794;17.616;2022-12-18T13:22:38;4.00;99.90
56771;DHT22;42641;59.794;17.616;2022-12-18T13:25:36;4.10;99.90
56771;DHT22;42641;59.794;17.616;2022-12-18T13:28:11;4.10;99.90
56771;DHT22;42641;59.794;17.616;2022-12-18T13:30:53;4.10;99.90
56771;DHT22;42641;59.794;17.616;2022-12-18T13:33:43;4.10;99.90
56771;DHT22;42641;59.794;17.616;2022-12-18T13:36:26;4.10;99.90
56771;DHT22;42641;59.794;17.616;2022-12-18T13:41:47;4.20;99.90
56771;DHT22;42641;59.794;17.616;2022-12-18T13:44:39;4.20;99.90
56771;DHT22;42641;59.794;17.616;2022-12-18T13:47:32;4.20;99.90
56771;DHT22;42641;59.794;17.616;2022-12-18T13:50:04;4.30;99.90
56771;DHT22;42641;59.794;17.616;2022-12-18T13:52:37;4.20;99.90
56771;DHT22;42641;59.794;17.616;2022-12-18T13:55:13;4.30;99.90
56771;DHT22;42641;59.794;17.616;2022-12-18T13:57:41;4.40;99.90
56771;DHT22;42641;59.794;17.616;2022-12-18T14:00:27;4.40;99.90
56771;DHT22;42641;59.794;17.616;2022-12-18T14:02:55;4.40;99.90
56771;DHT22;42641;59.794;17.616;2022-12-18T14:05:27;4.40;99.90
56771;DHT22;42641;59.794;17.616;2022-12-18T14:08:00;4.40;99.90
56771;DHT22;42641;59.794;17.616;2022-12-18T14:10:27;4.50;99.90
56771;DHT22;42641;59.794;17.616;2022-12-18T14:12:54;4.40;99.90
56771;DHT22;42641;59.794;17.616;2022-12-18T14:17:58;4.40;99.90
56771;DHT22;42641;59.794;17.616;2022-12-18T14:20:27;4.40;99.90
56771;DHT22;42641;59.794;17.616;2022-12-18T14:22:54;4.40;99.90
56771;DHT22;42641;59.794;17.616;2022-12-18T14:25:24;4.40;99.90
56771;DHT22;42641;59.794;17.616;2022-12-18T14:30:42;4.40;99.90
56771;DHT22;42641;59.794;17.616;2022-12-18T14:33:09;4.40;99.90
56771;DHT22;42641;59.794;17.616;2022-12-18T14:35:39;4.50;99.90
56771;DHT22;42641;59.794;17.616;2022-12-18T14:40:47;4.50;99.90
56771;DHT22;42641;59.794;17.616;2022-12-18T14:43:17;4.40;99.90
56771;DHT22;42641;59.794;17.616;2022-12-18T14:45:45;4.40;99.90
56771;DHT22;42641;59.794;17.616;2022-12-18T14:48:40;4.30;99.90
56771;DHT22;42641;59.794;17.616;2022-12-18T14:53:48;4.30;99.90
56771;DHT22;42641;59.794;17.616;2022-12-18T14:56:30;4.30;99.90
56771;DHT22;42641;59.794;17.616;2022-12-18T14:59:02;4.30;99.90
56771;DHT22;42641;59.794;17.616;2022-12-18T15:04:33;4.20;99.90
56771;DHT22;42641;59.794;17.616;2022-12-18T15:07:14;4.30;99.90
56771;DHT22;42641;59.794;17.616;2022-12-18T15:09:44;4.30;99.90
56771;DHT22;42641;59.794;17.616;2022-12-18T15:12:44;4.30;99.90
56771;DHT22;42641;59.794;17.616;2022-12-18T15:20:53;4.30;99.90
56771;DHT22;42641;59.794;17.616;2022-12-18T15:26:14;4.30;99.90
56771;DHT22;42641;59.794;17.616;2022-12-18T15:36:16;4.20;99.90
56771;DHT22;42641;59.794;17.616;2022-12-18T15:38:47;4.20;99.90
56771;DHT22;42641;59.794;17.616;2022-12-18T15:41:15;4.20;99.90
56771;DHT22;42641;59.794;17.616;2022-12-18T15:43:42;4.20;99.90
56771;DHT22;42641;59.794;17.616;2022-12-18T15:46:15;4.20;99.90
56771;DHT22;42641;59.794;17.616;2022-12-18T15:48:50;4.20;99.90
56771;DHT22;42641;59.794;17.616;2022-12-18T15:51:17;4.20;99.90
56771;DHT22;42641;59.794;17.616;2022-12-18T15:53:44;4.20;99.90
56771;DHT22;42641;59.794;17.616;2022-12-18T15:56:13;4.20;99.90
56771;DHT22;42641;59.794;17.616;2022-12-18T15:58:58;4.20;99.90
56771;DHT22;42641;59.794;17.616;2022-12-18T16:01:27;4.20;99.90
56771;DHT22;42641;59.794;17.616;2022-12-18T16:03:54;4.20;99.90
56771;DHT22;42641;59.794;17.616;2022-12-18T16:06:21;4.10;99.90
56771;DHT22;42641;59.794;17.616;2022-12-18T16:08:48;4.20;99.90
56771;DHT22;42641;59.794;17.616;2022-12-18T16:11:26;4.10;99.90
56771;DHT22;42641;59.794;17.616;2022-12-18T16:16:41;4.10;99.90
56771;DHT22;42641;59.794;17.616;2022-12-18T16:19:08;4.10;99.90
56771;DHT22;42641;59.794;17.616;2022-12-18T16:21:34;4.10;99.90
56771;DHT22;42641;59.794;17.616;2022-12-18T16:24:01;4.00;99.90
56771;DHT22;42641;59.794;17.616;2022-12-18T16:26:27;4.00;99.90
56771;DHT22;42641;59.794;17.616;2022-12-18T16:28:54;4.00;99.90
56771;DHT22;42641;59.794;17.616;2022-12-18T16:31:20;4.00;99.90
56771;DHT22;42641;59.794;17.616;2022-12-18T16:33:46;4.00;99.90
56771;DHT22;42641;59.794;17.616;2022-12-18T16:36:13;4.00;99.90
56771;DHT22;42641;59.794;17.616;2022-12-18T16:38:39;3.90;99.90
56771;DHT22;42641;59.794;17.616;2022-12-18T16:41:18;3.90;99.90
56771;DHT22;42641;59.794;17.616;2022-12-18T16:43:57;3.80;99.90
56771;DHT22;42641;59.794;17.616;2022-12-18T16:46:24;3.70;99.90
56771;DHT22;42641;59.794;17.616;2022-12-18T16:48:50;3.70;99.90
56771;DHT22;42641;59.794;17.616;2022-12-18T16:51:18;3.70;99.90
56771;DHT22;42641;59.794;17.616;2022-12-18T16:53:44;3.70;99.90
56771;DHT22;42641;59.794;17.616;2022-12-18T16:56:11;3.60;99.90
56771;DHT22;42641;59.794;17.616;2022-12-18T16:58:37;3.60;99.90
56771;DHT22;42641;59.794;17.616;2022-12-18T17:01:10;3.50;99.90
56771;DHT22;42641;59.794;17.616;2022-12-18T17:03:37;3.50;99.90
56771;DHT22;42641;59.794;17.616;2022-12-18T17:06:04;3.50;99.90
56771;DHT22;42641;59.794;17.616;2022-12-18T17:08:31;3.40;99.90
56771;DHT22;42641;59.794;17.616;2022-12-18T17:11:05;3.40;99.90
56771;DHT22;42641;59.794;17.616;2022-12-18T17:13:32;3.40;99.90
56771;DHT22;42641;59.794;17.616;2022-12-18T17:16:03;3.30;99.90
56771;DHT22;42641;59.794;17.616;2022-12-18T17:18:30;3.30;99.90
56771;DHT22;42641;59.794;17.616;2022-12-18T17:21:00;3.20;99.90
56771;DHT22;42641;59.794;17.616;2022-12-18T17:23:27;3.20;99.90
56771;DHT22;42641;59.794;17.616;2022-12-18T17:25:55;3.20;99.90
56771;DHT22;42641;59.794;17.616;2022-12-18T17:28:23;3.10;99.90
56771;DHT22;42641;59.794;17.616;2022-12-18T17:30:54;3.10;99.90
56771;DHT22;42641;59.794;17.616;2022-12-18T17:33:22;3.10;99.90
56771;DHT22;42641;59.794;17.616;2022-12-18T17:35:48;3.10;99.90
56771;DHT22;42641;59.794;17.616;2022-12-18T17:38:15;3.00;99.90
56771;DHT22;42641;59.794;17.616;2022-12-18T17:40:42;2.90;99.90